Anthony, Pennsylvania
Current Conditions -  °F | °C
As of 5:14 AM on Monday 22 Dec 2014 (Local Time) from KIPT Reporting Station
Broken Clouds Broken Clouds  
Wind Chill: 21°   Ceiling: 2300
Heat Index: 21°   Visibility: 10mi
Dew Point: 17°   Wind: 3mph
Humidity: 85%   Direction: 300°WNW
Pressure: 30.28"   Gusts: NA
Location:  41.1183°N, 76.7254°W
Report Text: KIPT 221014Z AUTO 30003KT 10SM BKN023 M06/M08 A3028 RMK AO2 T10611083
Loading
Personal Weather Stations






























Interactive Weather Map New forecast layout! Learn more

10-Day Weather Forecast

Advertisements
Track Severe Weather on mobile